MBS International Airport
KMBS : now visible

Airfield :











YOU CAN JOIN US ON...

 
LOGIN :

Register | Disclaimer

   EN    FR    IT 

 









Legend :    VFR   Marginal VFR   IFR   Intensive IFR   Very Intensive IFR
Visi :
Ceiling :
>= 8 km
>= 3000ft
5 to 8 km
1000 to 3000 ft
1500m to 5 km
500 to 1000 ft
800 to 1500m
200 to 500 ft
< 800m
< 200 ft
Symbols :   Thunderstorms  Fog  Heavy snow  Heavy precipitations  Wind > 20 kt







- Airport Elevation : 668 ft
- IATA code : MBS


KMBS - MBS International

CURRENT METAR :
  • 230153Z 32012KT 10SM CLR M01/M07 A3014 RMK AO2 SLP214 T10111072

EXPIRED METARs :
  • 230053Z 31012KT 10SM CLR M01/M07 A3011 RMK AO2 SLP204 T10061067
  • 222353Z 32014KT 10SM CLR 01/M07 A3009 RMK AO2 SLP196 T00061067 10056 20006 53028

TAF KMBS
Valid from the 23 at 00:00 until the 24 at 00:00 UTC


222323Z 2300/2324 33012G22KT P6SM SKC
FM230200 33009KT P6SM SKC
FM231600 28010KT P6SM SKC
KZOB FIR / North America



MET'MAP, your aeronautical weather chart ! - Copyright ORBIFLY December 2007 - Disclaimer

ORBIFLY MET'MAP TEAM :

Programming & Development : Alexandra Zaïnal
Concept & Development : Baudouin d'Aumeries
Co-Development & Prog : Marc-Olivier Méhu
Technical & hardware support : Manuel Goepfert

Contact : metmap@orbifly.com




SOURCES & CREDITS :

   NOAA       Earth
Advisory